Aviation Digital Data Service (ADDS)

Output produced by METARs form (0157 UTC 25 February 2018)
found at http://aviationweather.gov/adds/metars/
 
KSBY 242334Z 2500/2524 08008KT 4SM BR VCSH OVC004 
     FM250600 09009KT 1 1/2SM BR VCSH OVC003 
     FM250900 12006KT 1 1/2SM BR OVC003 
     FM251300 18007KT 4SM BR OVC005 WS020/23040KT 
     FM251500 22012KT P6SM BKN008 
     FM251800 22013G21KT P6SM BKN040